sensor_id;sensor_type;location;lat;lon;timestamp;temperature;humidity
4324;DHT22;2175;51.018;6.994;2022-11-20T00:00:07;4.40;99.90
4324;DHT22;2175;51.018;6.994;2022-11-20T00:02:36;4.50;99.90
4324;DHT22;2175;51.018;6.994;2022-11-20T00:05:01;4.40;99.90
4324;DHT22;2175;51.018;6.994;2022-11-20T00:07:27;4.50;99.90
4324;DHT22;2175;51.018;6.994;2022-11-20T00:09:52;4.50;99.90
4324;DHT22;2175;51.018;6.994;2022-11-20T00:12:18;4.40;99.90
4324;DHT22;2175;51.018;6.994;2022-11-20T00:14:44;4.50;99.90
4324;DHT22;2175;51.018;6.994;2022-11-20T00:17:09;4.50;99.90
4324;DHT22;2175;51.018;6.994;2022-11-20T00:19:35;4.40;99.90
4324;DHT22;2175;51.018;6.994;2022-11-20T00:22:00;4.50;99.90
4324;DHT22;2175;51.018;6.994;2022-11-20T00:24:26;4.40;99.90
4324;DHT22;2175;51.018;6.994;2022-11-20T00:26:51;4.50;99.90
4324;DHT22;2175;51.018;6.994;2022-11-20T00:29:17;4.50;99.90
4324;DHT22;2175;51.018;6.994;2022-11-20T00:31:43;4.40;99.90
4324;DHT22;2175;51.018;6.994;2022-11-20T00:34:09;4.50;99.90
4324;DHT22;2175;51.018;6.994;2022-11-20T00:36:35;4.50;99.90
4324;DHT22;2175;51.018;6.994;2022-11-20T00:39:01;4.60;99.90
4324;DHT22;2175;51.018;6.994;2022-11-20T00:41:29;4.50;99.90
4324;DHT22;2175;51.018;6.994;2022-11-20T00:43:55;4.50;99.90
4324;DHT22;2175;51.018;6.994;2022-11-20T00:46:27;4.40;99.90
4324;DHT22;2175;51.018;6.994;2022-11-20T00:48:53;4.40;99.90
4324;DHT22;2175;51.018;6.994;2022-11-20T00:51:21;4.40;99.90
4324;DHT22;2175;51.018;6.994;2022-11-20T00:53:47;4.40;99.90
4324;DHT22;2175;51.018;6.994;2022-11-20T00:56:14;4.40;99.90
4324;DHT22;2175;51.018;6.994;2022-11-20T00:58:42;4.30;99.90
4324;DHT22;2175;51.018;6.994;2022-11-20T01:01:17;4.40;99.90
4324;DHT22;2175;51.018;6.994;2022-11-20T01:03:46;4.50;99.90
4324;DHT22;2175;51.018;6.994;2022-11-20T01:06:15;4.40;99.90
4324;DHT22;2175;51.018;6.994;2022-11-20T01:08:42;4.40;99.90
4324;DHT22;2175;51.018;6.994;2022-11-20T01:11:10;4.30;99.90
4324;DHT22;2175;51.018;6.994;2022-11-20T01:13:37;4.40;99.90
4324;DHT22;2175;51.018;6.994;2022-11-20T01:16:12;4.40;99.90
4324;DHT22;2175;51.018;6.994;2022-11-20T01:18:39;4.50;99.90
4324;DHT22;2175;51.018;6.994;2022-11-20T01:21:11;4.40;99.90
4324;DHT22;2175;51.018;6.994;2022-11-20T01:23:40;4.50;99.90
4324;DHT22;2175;51.018;6.994;2022-11-20T01:26:08;4.40;99.90
4324;DHT22;2175;51.018;6.994;2022-11-20T01:28:34;4.30;99.90
4324;DHT22;2175;51.018;6.994;2022-11-20T01:31:01;4.30;99.90
4324;DHT22;2175;51.018;6.994;2022-11-20T01:33:26;4.20;99.90
4324;DHT22;2175;51.018;6.994;2022-11-20T01:35:52;4.20;99.90
4324;DHT22;2175;51.018;6.994;2022-11-20T01:38:18;4.30;99.90
4324;DHT22;2175;51.018;6.994;2022-11-20T01:40:53;4.40;99.90
4324;DHT22;2175;51.018;6.994;2022-11-20T01:43:19;4.40;99.90
4324;DHT22;2175;51.018;6.994;2022-11-20T01:46:17;4.50;99.90
4324;DHT22;2175;51.018;6.994;2022-11-20T01:51:32;4.40;99.90
4324;DHT22;2175;51.018;6.994;2022-11-20T01:54:01;4.30;99.90
4324;DHT22;2175;51.018;6.994;2022-11-20T01:56:29;4.30;99.90
4324;DHT22;2175;51.018;6.994;2022-11-20T01:58:58;4.40;99.90
4324;DHT22;2175;51.018;6.994;2022-11-20T02:01:26;4.40;99.90
4324;DHT22;2175;51.018;6.994;2022-11-20T02:03:52;4.40;99.90
4324;DHT22;2175;51.018;6.994;2022-11-20T02:06:29;4.30;99.90
4324;DHT22;2175;51.018;6.994;2022-11-20T02:08:56;4.30;99.90
4324;DHT22;2175;51.018;6.994;2022-11-20T02:11:21;4.20;99.90
4324;DHT22;2175;51.018;6.994;2022-11-20T02:13:47;4.30;99.90
4324;DHT22;2175;51.018;6.994;2022-11-20T02:18:46;4.20;99.90
4324;DHT22;2175;51.018;6.994;2022-11-20T02:24:07;4.30;99.90
4324;DHT22;2175;51.018;6.994;2022-11-20T02:26:49;4.30;99.90
4324;DHT22;2175;51.018;6.994;2022-11-20T02:29:20;4.30;99.90
4324;DHT22;2175;51.018;6.994;2022-11-20T02:31:48;4.30;99.90
4324;DHT22;2175;51.018;6.994;2022-11-20T02:34:14;4.30;99.90
4324;DHT22;2175;51.018;6.994;2022-11-20T02:36:40;4.40;99.90
4324;DHT22;2175;51.018;6.994;2022-11-20T02:39:07;4.40;99.90
4324;DHT22;2175;51.018;6.994;2022-11-20T02:41:36;4.40;99.90
4324;DHT22;2175;51.018;6.994;2022-11-20T02:44:03;4.30;99.90
4324;DHT22;2175;51.018;6.994;2022-11-20T02:46:35;4.30;99.90
4324;DHT22;2175;51.018;6.994;2022-11-20T02:49:04;4.20;99.90
4324;DHT22;2175;51.018;6.994;2022-11-20T02:51:30;4.30;99.90
4324;DHT22;2175;51.018;6.994;2022-11-20T02:53:56;4.30;99.90
4324;DHT22;2175;51.018;6.994;2022-11-20T02:56:22;4.30;99.90
4324;DHT22;2175;51.018;6.994;2022-11-20T02:58:47;4.30;99.90
4324;DHT22;2175;51.018;6.994;2022-11-20T03:01:13;4.20;99.90
4324;DHT22;2175;51.018;6.994;2022-11-20T03:03:39;4.20;99.90
4324;DHT22;2175;51.018;6.994;2022-11-20T03:06:05;4.20;99.90
4324;DHT22;2175;51.018;6.994;2022-11-20T03:08:31;4.20;99.90
4324;DHT22;2175;51.018;6.994;2022-11-20T03:10:56;4.20;99.90
4324;DHT22;2175;51.018;6.994;2022-11-20T03:13:22;4.20;99.90
4324;DHT22;2175;51.018;6.994;2022-11-20T03:15:48;4.10;99.90
4324;DHT22;2175;51.018;6.994;2022-11-20T03:18:14;4.20;99.90
4324;DHT22;2175;51.018;6.994;2022-11-20T03:20:40;4.30;99.90
4324;DHT22;2175;51.018;6.994;2022-11-20T03:23:05;4.20;99.90
4324;DHT22;2175;51.018;6.994;2022-11-20T03:25:31;4.20;99.90
4324;DHT22;2175;51.018;6.994;2022-11-20T03:27:56;4.10;99.90
4324;DHT22;2175;51.018;6.994;2022-11-20T03:30:22;4.10;99.90
4324;DHT22;2175;51.018;6.994;2022-11-20T03:32:48;4.10;99.90
4324;DHT22;2175;51.018;6.994;2022-11-20T03:35:13;4.20;99.90
4324;DHT22;2175;51.018;6.994;2022-11-20T03:37:39;4.10;99.90
4324;DHT22;2175;51.018;6.994;2022-11-20T03:40:05;4.00;99.90
4324;DHT22;2175;51.018;6.994;2022-11-20T03:42:31;4.20;99.90
4324;DHT22;2175;51.018;6.994;2022-11-20T03:45:16;4.10;99.90
4324;DHT22;2175;51.018;6.994;2022-11-20T03:47:42;4.10;99.90
4324;DHT22;2175;51.018;6.994;2022-11-20T03:50:09;4.10;99.90
4324;DHT22;2175;51.018;6.994;2022-11-20T03:52:35;4.10;99.90
4324;DHT22;2175;51.018;6.994;2022-11-20T03:55:01;4.10;99.90
4324;DHT22;2175;51.018;6.994;2022-11-20T03:57:26;4.20;99.90
4324;DHT22;2175;51.018;6.994;2022-11-20T03:59:52;4.20;99.90
4324;DHT22;2175;51.018;6.994;2022-11-20T04:02:18;4.30;99.90
4324;DHT22;2175;51.018;6.994;2022-11-20T04:04:43;4.30;99.90
4324;DHT22;2175;51.018;6.994;2022-11-20T04:07:09;4.20;99.90
4324;DHT22;2175;51.018;6.994;2022-11-20T04:09:35;4.10;99.90
4324;DHT22;2175;51.018;6.994;2022-11-20T04:12:00;4.00;99.90
4324;DHT22;2175;51.018;6.994;2022-11-20T04:14:26;4.00;99.90
4324;DHT22;2175;51.018;6.994;2022-11-20T04:16:51;4.10;99.90
4324;DHT22;2175;51.018;6.994;2022-11-20T04:19:17;4.10;99.90
4324;DHT22;2175;51.018;6.994;2022-11-20T04:21:44;4.10;99.90
4324;DHT22;2175;51.018;6.994;2022-11-20T04:24:10;4.10;99.90
4324;DHT22;2175;51.018;6.994;2022-11-20T04:26:36;4.10;99.90
4324;DHT22;2175;51.018;6.994;2022-11-20T04:29:02;4.00;99.90
4324;DHT22;2175;51.018;6.994;2022-11-20T04:31:31;4.00;99.90
4324;DHT22;2175;51.018;6.994;2022-11-20T04:34:02;3.90;99.90
4324;DHT22;2175;51.018;6.994;2022-11-20T04:36:29;3.80;99.90
4324;DHT22;2175;51.018;6.994;2022-11-20T04:38:59;3.80;99.90
4324;DHT22;2175;51.018;6.994;2022-11-20T04:41:28;4.00;99.90
4324;DHT22;2175;51.018;6.994;2022-11-20T04:43:56;3.90;99.90
4324;DHT22;2175;51.018;6.994;2022-11-20T04:46:25;4.00;99.90
4324;DHT22;2175;51.018;6.994;2022-11-20T04:48:51;4.00;99.90
4324;DHT22;2175;51.018;6.994;2022-11-20T04:51:17;4.10;99.90
4324;DHT22;2175;51.018;6.994;2022-11-20T04:53:42;4.10;99.90
4324;DHT22;2175;51.018;6.994;2022-11-20T04:56:10;4.10;99.90
4324;DHT22;2175;51.018;6.994;2022-11-20T04:58:37;4.10;99.90
4324;DHT22;2175;51.018;6.994;2022-11-20T05:01:05;4.00;99.90
4324;DHT22;2175;51.018;6.994;2022-11-20T05:03:31;4.00;99.90
4324;DHT22;2175;51.018;6.994;2022-11-20T05:06:00;4.10;99.90
4324;DHT22;2175;51.018;6.994;2022-11-20T05:08:26;4.10;99.90
4324;DHT22;2175;51.018;6.994;2022-11-20T05:10:52;4.10;99.90
4324;DHT22;2175;51.018;6.994;2022-11-20T05:13:17;4.10;99.90
4324;DHT22;2175;51.018;6.994;2022-11-20T05:15:43;4.00;99.90
4324;DHT22;2175;51.018;6.994;2022-11-20T05:18:08;4.00;99.90
4324;DHT22;2175;51.018;6.994;2022-11-20T05:20:34;4.00;99.90
4324;DHT22;2175;51.018;6.994;2022-11-20T05:23:01;4.00;99.90
4324;DHT22;2175;51.018;6.994;2022-11-20T05:25:27;4.00;99.90
4324;DHT22;2175;51.018;6.994;2022-11-20T05:27:53;4.00;99.90
4324;DHT22;2175;51.018;6.994;2022-11-20T05:30:18;4.10;99.90
4324;DHT22;2175;51.018;6.994;2022-11-20T05:32:44;4.10;99.90
4324;DHT22;2175;51.018;6.994;2022-11-20T05:35:10;4.10;99.90
4324;DHT22;2175;51.018;6.994;2022-11-20T05:37:35;4.10;99.90
4324;DHT22;2175;51.018;6.994;2022-11-20T05:40:01;4.10;99.90
4324;DHT22;2175;51.018;6.994;2022-11-20T05:42:29;4.10;99.90
4324;DHT22;2175;51.018;6.994;2022-11-20T05:44:56;4.20;99.90
4324;DHT22;2175;51.018;6.994;2022-11-20T05:47:21;4.20;99.90
4324;DHT22;2175;51.018;6.994;2022-11-20T05:49:47;4.20;99.90
4324;DHT22;2175;51.018;6.994;2022-11-20T05:52:12;4.20;99.90
4324;DHT22;2175;51.018;6.994;2022-11-20T05:54:38;4.10;99.90
4324;DHT22;2175;51.018;6.994;2022-11-20T05:57:04;4.20;99.90
4324;DHT22;2175;51.018;6.994;2022-11-20T05:59:29;4.20;99.90
4324;DHT22;2175;51.018;6.994;2022-11-20T06:01:55;4.20;99.90
4324;DHT22;2175;51.018;6.994;2022-11-20T06:04:20;4.30;99.90
4324;DHT22;2175;51.018;6.994;2022-11-20T06:06:46;4.20;99.90
4324;DHT22;2175;51.018;6.994;2022-11-20T06:09:11;4.10;99.90
4324;DHT22;2175;51.018;6.994;2022-11-20T06:11:37;4.20;99.90
4324;DHT22;2175;51.018;6.994;2022-11-20T06:14:02;4.10;99.90
4324;DHT22;2175;51.018;6.994;2022-11-20T06:16:28;4.20;99.90
4324;DHT22;2175;51.018;6.994;2022-11-20T06:18:54;4.20;99.90
4324;DHT22;2175;51.018;6.994;2022-11-20T06:21:21;4.10;99.90
4324;DHT22;2175;51.018;6.994;2022-11-20T06:23:48;4.00;99.90
4324;DHT22;2175;51.018;6.994;2022-11-20T06:26:16;4.00;99.90
4324;DHT22;2175;51.018;6.994;2022-11-20T06:28:42;3.80;99.90
4324;DHT22;2175;51.018;6.994;2022-11-20T06:31:10;3.80;99.90
4324;DHT22;2175;51.018;6.994;2022-11-20T06:33:36;3.80;99.90
4324;DHT22;2175;51.018;6.994;2022-11-20T06:36:03;3.70;99.90
4324;DHT22;2175;51.018;6.994;2022-11-20T06:38:29;3.80;99.90
4324;DHT22;2175;51.018;6.994;2022-11-20T06:40:55;3.70;99.90
4324;DHT22;2175;51.018;6.994;2022-11-20T06:43:21;3.70;99.90
4324;DHT22;2175;51.018;6.994;2022-11-20T06:45:57;3.60;99.90
4324;DHT22;2175;51.018;6.994;2022-11-20T06:48:24;3.60;99.90
4324;DHT22;2175;51.018;6.994;2022-11-20T06:50:50;3.60;99.90
4324;DHT22;2175;51.018;6.994;2022-11-20T06:53:16;3.60;99.90
4324;DHT22;2175;51.018;6.994;2022-11-20T06:55:46;3.60;99.90
4324;DHT22;2175;51.018;6.994;2022-11-20T06:58:13;3.50;99.90
4324;DHT22;2175;51.018;6.994;2022-11-20T07:00:39;3.60;99.90
4324;DHT22;2175;51.018;6.994;2022-11-20T07:03:07;3.60;99.90
4324;DHT22;2175;51.018;6.994;2022-11-20T07:05:33;3.50;99.90
4324;DHT22;2175;51.018;6.994;2022-11-20T07:07:59;3.50;99.90
4324;DHT22;2175;51.018;6.994;2022-11-20T07:10:25;3.30;99.90
4324;DHT22;2175;51.018;6.994;2022-11-20T07:12:52;3.40;99.90
4324;DHT22;2175;51.018;6.994;2022-11-20T07:15:19;3.40;99.90
4324;DHT22;2175;51.018;6.994;2022-11-20T07:17:45;3.40;99.90
4324;DHT22;2175;51.018;6.994;2022-11-20T07:20:11;3.40;99.90
4324;DHT22;2175;51.018;6.994;2022-11-20T07:22:37;3.40;99.90
4324;DHT22;2175;51.018;6.994;2022-11-20T07:25:03;3.30;99.90
4324;DHT22;2175;51.018;6.994;2022-11-20T07:27:29;3.30;99.90
4324;DHT22;2175;51.018;6.994;2022-11-20T07:29:55;3.40;99.90
4324;DHT22;2175;51.018;6.994;2022-11-20T07:32:21;3.40;99.90
4324;DHT22;2175;51.018;6.994;2022-11-20T07:34:46;3.40;99.90
4324;DHT22;2175;51.018;6.994;2022-11-20T07:37:12;3.50;99.90
4324;DHT22;2175;51.018;6.994;2022-11-20T07:39:38;3.50;99.90
4324;DHT22;2175;51.018;6.994;2022-11-20T07:42:04;3.40;99.90
4324;DHT22;2175;51.018;6.994;2022-11-20T07:44:30;3.50;99.90
4324;DHT22;2175;51.018;6.994;2022-11-20T07:46:56;3.50;99.90
4324;DHT22;2175;51.018;6.994;2022-11-20T07:49:22;3.50;99.90
4324;DHT22;2175;51.018;6.994;2022-11-20T07:51:50;3.60;99.90
4324;DHT22;2175;51.018;6.994;2022-11-20T07:54:15;3.70;99.90
4324;DHT22;2175;51.018;6.994;2022-11-20T07:56:41;3.70;99.90
4324;DHT22;2175;51.018;6.994;2022-11-20T07:59:07;3.80;99.90
4324;DHT22;2175;51.018;6.994;2022-11-20T08:01:32;3.80;99.90
4324;DHT22;2175;51.018;6.994;2022-11-20T08:03:58;3.70;99.90
4324;DHT22;2175;51.018;6.994;2022-11-20T08:06:23;3.80;99.90
4324;DHT22;2175;51.018;6.994;2022-11-20T08:08:50;3.80;99.90
4324;DHT22;2175;51.018;6.994;2022-11-20T08:11:16;3.90;99.90
4324;DHT22;2175;51.018;6.994;2022-11-20T08:14:00;3.90;99.90
4324;DHT22;2175;51.018;6.994;2022-11-20T08:16:46;4.00;99.90
4324;DHT22;2175;51.018;6.994;2022-11-20T08:19:13;4.00;99.90
4324;DHT22;2175;51.018;6.994;2022-11-20T08:21:39;4.10;99.90
4324;DHT22;2175;51.018;6.994;2022-11-20T08:24:05;4.10;99.90
4324;DHT22;2175;51.018;6.994;2022-11-20T08:26:31;4.20;99.90
4324;DHT22;2175;51.018;6.994;2022-11-20T08:28:57;4.20;99.90
4324;DHT22;2175;51.018;6.994;2022-11-20T08:31:26;4.20;99.90
4324;DHT22;2175;51.018;6.994;2022-11-20T08:33:52;4.20;99.90
4324;DHT22;2175;51.018;6.994;2022-11-20T08:36:19;4.30;99.90
4324;DHT22;2175;51.018;6.994;2022-11-20T08:38:49;4.40;99.90
4324;DHT22;2175;51.018;6.994;2022-11-20T08:41:15;4.30;99.90
4324;DHT22;2175;51.018;6.994;2022-11-20T08:43:57;4.50;99.90
4324;DHT22;2175;51.018;6.994;2022-11-20T08:46:25;4.50;99.90
4324;DHT22;2175;51.018;6.994;2022-11-20T08:48:51;4.60;99.90
4324;DHT22;2175;51.018;6.994;2022-11-20T08:51:17;4.60;99.90
4324;DHT22;2175;51.018;6.994;2022-11-20T08:53:43;4.60;99.90
4324;DHT22;2175;51.018;6.994;2022-11-20T08:56:08;4.70;99.90
4324;DHT22;2175;51.018;6.994;2022-11-20T08:58:36;4.70;99.90
4324;DHT22;2175;51.018;6.994;2022-11-20T09:01:02;4.70;99.90
4324;DHT22;2175;51.018;6.994;2022-11-20T09:03:27;4.70;99.90
4324;DHT22;2175;51.018;6.994;2022-11-20T09:06:05;4.70;99.90
4324;DHT22;2175;51.018;6.994;2022-11-20T09:08:32;4.80;99.90
4324;DHT22;2175;51.018;6.994;2022-11-20T09:10:58;4.90;99.90
4324;DHT22;2175;51.018;6.994;2022-11-20T09:13:25;5.00;99.90
4324;DHT22;2175;51.018;6.994;2022-11-20T09:15:56;5.00;99.90
4324;DHT22;2175;51.018;6.994;2022-11-20T09:18:26;5.00;99.90
4324;DHT22;2175;51.018;6.994;2022-11-20T09:20:55;5.00;99.90
4324;DHT22;2175;51.018;6.994;2022-11-20T09:23:21;5.00;99.90
4324;DHT22;2175;51.018;6.994;2022-11-20T09:25:46;5.20;99.90
4324;DHT22;2175;51.018;6.994;2022-11-20T09:28:12;5.10;99.90
4324;DHT22;2175;51.018;6.994;2022-11-20T09:30:38;5.10;99.90
4324;DHT22;2175;51.018;6.994;2022-11-20T09:33:05;5.20;99.90
4324;DHT22;2175;51.018;6.994;2022-11-20T09:35:32;5.20;99.90
4324;DHT22;2175;51.018;6.994;2022-11-20T09:37:57;5.20;99.90
4324;DHT22;2175;51.018;6.994;2022-11-20T09:40:28;5.20;99.90
4324;DHT22;2175;51.018;6.994;2022-11-20T09:46:35;5.40;99.90
4324;DHT22;2175;51.018;6.994;2022-11-20T09:52:00;5.50;99.90
4324;DHT22;2175;51.018;6.994;2022-11-20T09:54:37;5.50;99.90
4324;DHT22;2175;51.018;6.994;2022-11-20T09:57:40;5.70;99.90
4324;DHT22;2175;51.018;6.994;2022-11-20T10:00:11;5.60;99.90
4324;DHT22;2175;51.018;6.994;2022-11-20T10:02:44;5.70;99.90
4324;DHT22;2175;51.018;6.994;2022-11-20T10:05:39;5.80;99.90
4324;DHT22;2175;51.018;6.994;2022-11-20T10:10:56;5.80;99.90
4324;DHT22;2175;51.018;6.994;2022-11-20T10:16:26;5.80;99.90
4324;DHT22;2175;51.018;6.994;2022-11-20T10:32:37;5.60;99.90
4324;DHT22;2175;51.018;6.994;2022-11-20T10:37:48;5.60;99.90
4324;DHT22;2175;51.018;6.994;2022-11-20T10:40:35;5.50;99.90
4324;DHT22;2175;51.018;6.994;2022-11-20T10:45:56;5.60;99.90
4324;DHT22;2175;51.018;6.994;2022-11-20T10:48:28;5.60;99.90
4324;DHT22;2175;51.018;6.994;2022-11-20T10:51:46;5.60;99.90
4324;DHT22;2175;51.018;6.994;2022-11-20T10:54:11;5.50;99.90
4324;DHT22;2175;51.018;6.994;2022-11-20T10:56:47;5.70;99.90
4324;DHT22;2175;51.018;6.994;2022-11-20T11:01:58;5.90;99.90
4324;DHT22;2175;51.018;6.994;2022-11-20T11:04:37;5.80;99.90
4324;DHT22;2175;51.018;6.994;2022-11-20T11:07:12;5.80;99.90
4324;DHT22;2175;51.018;6.994;2022-11-20T11:09:44;5.90;99.90
4324;DHT22;2175;51.018;6.994;2022-11-20T11:12:12;5.90;99.90
4324;DHT22;2175;51.018;6.994;2022-11-20T11:14:46;5.90;99.90
4324;DHT22;2175;51.018;6.994;2022-11-20T11:17:33;5.90;99.90
4324;DHT22;2175;51.018;6.994;2022-11-20T11:20:21;6.00;99.90
4324;DHT22;2175;51.018;6.994;2022-11-20T11:22:50;6.10;99.90
4324;DHT22;2175;51.018;6.994;2022-11-20T11:27:58;5.90;99.90
4324;DHT22;2175;51.018;6.994;2022-11-20T11:30:28;5.80;99.90
4324;DHT22;2175;51.018;6.994;2022-11-20T11:33:08;5.80;99.90
4324;DHT22;2175;51.018;6.994;2022-11-20T11:35:43;5.80;99.90
4324;DHT22;2175;51.018;6.994;2022-11-20T11:38:16;5.90;99.90
4324;DHT22;2175;51.018;6.994;2022-11-20T11:40:43;5.90;99.90
4324;DHT22;2175;51.018;6.994;2022-11-20T11:43:22;5.80;99.90
4324;DHT22;2175;51.018;6.994;2022-11-20T11:46:26;5.90;99.90
4324;DHT22;2175;51.018;6.994;2022-11-20T11:49:14;6.00;99.90
4324;DHT22;2175;51.018;6.994;2022-11-20T11:52:11;5.90;99.90
4324;DHT22;2175;51.018;6.994;2022-11-20T11:54:55;6.00;99.90
4324;DHT22;2175;51.018;6.994;2022-11-20T11:57:43;5.90;99.90
4324;DHT22;2175;51.018;6.994;2022-11-20T12:00:17;6.10;99.90
4324;DHT22;2175;51.018;6.994;2022-11-20T12:10:48;6.60;99.90
4324;DHT22;2175;51.018;6.994;2022-11-20T12:13:17;6.70;99.90
4324;DHT22;2175;51.018;6.994;2022-11-20T12:15:47;6.40;99.90
4324;DHT22;2175;51.018;6.994;2022-11-20T12:18:18;6.30;99.90
4324;DHT22;2175;51.018;6.994;2022-11-20T12:26:08;6.20;99.90
4324;DHT22;2175;51.018;6.994;2022-11-20T12:31:42;6.20;99.90
4324;DHT22;2175;51.018;6.994;2022-11-20T12:34:30;6.20;99.90
4324;DHT22;2175;51.018;6.994;2022-11-20T12:40:33;6.20;99.90
4324;DHT22;2175;51.018;6.994;2022-11-20T12:46:08;6.10;99.90
4324;DHT22;2175;51.018;6.994;2022-11-20T13:03:00;6.20;99.90
4324;DHT22;2175;51.018;6.994;2022-11-20T13:08:30;6.40;99.90
4324;DHT22;2175;51.018;6.994;2022-11-20T13:11:14;6.40;99.90
4324;DHT22;2175;51.018;6.994;2022-11-20T13:16:50;6.60;99.90
4324;DHT22;2175;51.018;6.994;2022-11-20T13:19:18;6.70;99.90
4324;DHT22;2175;51.018;6.994;2022-11-20T13:21:45;6.50;99.90
4324;DHT22;2175;51.018;6.994;2022-11-20T13:29:42;6.60;99.90
4324;DHT22;2175;51.018;6.994;2022-11-20T13:32:17;6.70;99.90
4324;DHT22;2175;51.018;6.994;2022-11-20T13:34:57;6.70;99.90
4324;DHT22;2175;51.018;6.994;2022-11-20T13:37:26;6.80;99.90
4324;DHT22;2175;51.018;6.994;2022-11-20T13:39:52;6.80;99.90
4324;DHT22;2175;51.018;6.994;2022-11-20T13:42:26;6.80;99.90
4324;DHT22;2175;51.018;6.994;2022-11-20T13:45:02;6.80;99.90
4324;DHT22;2175;51.018;6.994;2022-11-20T13:47:28;6.70;99.90
4324;DHT22;2175;51.018;6.994;2022-11-20T13:49:57;6.80;99.90
4324;DHT22;2175;51.018;6.994;2022-11-20T14:00:19;6.70;99.90
4324;DHT22;2175;51.018;6.994;2022-11-20T14:03:19;6.70;99.90
4324;DHT22;2175;51.018;6.994;2022-11-20T14:06:05;6.70;99.90
4324;DHT22;2175;51.018;6.994;2022-11-20T14:08:45;6.70;99.90
4324;DHT22;2175;51.018;6.994;2022-11-20T14:11:20;6.70;99.90
4324;DHT22;2175;51.018;6.994;2022-11-20T14:14:01;6.80;99.90
4324;DHT22;2175;51.018;6.994;2022-11-20T14:16:31;6.80;99.90
4324;DHT22;2175;51.018;6.994;2022-11-20T14:18:57;6.80;99.90
4324;DHT22;2175;51.018;6.994;2022-11-20T14:21:40;6.80;99.90
4324;DHT22;2175;51.018;6.994;2022-11-20T14:24:07;6.80;99.90
4324;DHT22;2175;51.018;6.994;2022-11-20T14:26:35;6.80;99.90
4324;DHT22;2175;51.018;6.994;2022-11-20T14:29:02;6.70;99.90
4324;DHT22;2175;51.018;6.994;2022-11-20T14:31:28;6.70;99.90
4324;DHT22;2175;51.018;6.994;2022-11-20T14:33:54;6.70;99.90
4324;DHT22;2175;51.018;6.994;2022-11-20T14:36:23;6.70;99.90
4324;DHT22;2175;51.018;6.994;2022-11-20T14:38:51;6.70;99.90
4324;DHT22;2175;51.018;6.994;2022-11-20T14:41:20;6.70;99.90
4324;DHT22;2175;51.018;6.994;2022-11-20T14:43:57;6.70;99.90
4324;DHT22;2175;51.018;6.994;2022-11-20T14:46:24;6.70;99.90
4324;DHT22;2175;51.018;6.994;2022-11-20T14:48:53;6.70;99.90
4324;DHT22;2175;51.018;6.994;2022-11-20T14:51:46;6.60;99.90
4324;DHT22;2175;51.018;6.994;2022-11-20T14:54:20;6.60;99.90
4324;DHT22;2175;51.018;6.994;2022-11-20T14:56:58;6.60;99.90
4324;DHT22;2175;51.018;6.994;2022-11-20T14:59:30;6.70;99.90
4324;DHT22;2175;51.018;6.994;2022-11-20T15:02:04;6.80;99.90
4324;DHT22;2175;51.018;6.994;2022-11-20T15:04:32;6.70;99.90
4324;DHT22;2175;51.018;6.994;2022-11-20T15:06:59;6.70;99.90
4324;DHT22;2175;51.018;6.994;2022-11-20T15:09:25;6.70;99.90
4324;DHT22;2175;51.018;6.994;2022-11-20T15:11:55;6.70;99.90
4324;DHT22;2175;51.018;6.994;2022-11-20T15:14:23;6.80;99.90
4324;DHT22;2175;51.018;6.994;2022-11-20T15:16:50;6.70;99.90
4324;DHT22;2175;51.018;6.994;2022-11-20T15:19:24;6.70;99.90
4324;DHT22;2175;51.018;6.994;2022-11-20T15:21:50;6.70;99.90
4324;DHT22;2175;51.018;6.994;2022-11-20T15:24:16;6.70;99.90
4324;DHT22;2175;51.018;6.994;2022-11-20T15:26:42;6.80;99.90
4324;DHT22;2175;51.018;6.994;2022-11-20T15:29:14;6.80;99.90
4324;DHT22;2175;51.018;6.994;2022-11-20T15:31:40;6.90;99.90
4324;DHT22;2175;51.018;6.994;2022-11-20T15:34:12;6.70;99.90
4324;DHT22;2175;51.018;6.994;2022-11-20T15:36:39;6.70;99.90
4324;DHT22;2175;51.018;6.994;2022-11-20T15:39:05;6.60;99.90
4324;DHT22;2175;51.018;6.994;2022-11-20T15:41:36;6.60;99.90
4324;DHT22;2175;51.018;6.994;2022-11-20T15:44:03;6.60;99.90
4324;DHT22;2175;51.018;6.994;2022-11-20T15:46:32;6.50;99.90
4324;DHT22;2175;51.018;6.994;2022-11-20T15:49:04;6.40;99.90
4324;DHT22;2175;51.018;6.994;2022-11-20T15:51:32;6.40;99.90
4324;DHT22;2175;51.018;6.994;2022-11-20T15:53:59;6.40;99.90
4324;DHT22;2175;51.018;6.994;2022-11-20T15:56:25;6.40;99.90
4324;DHT22;2175;51.018;6.994;2022-11-20T15:58:53;6.30;99.90
4324;DHT22;2175;51.018;6.994;2022-11-20T16:01:21;6.30;99.90
4324;DHT22;2175;51.018;6.994;2022-11-20T16:03:47;6.40;99.90
4324;DHT22;2175;51.018;6.994;2022-11-20T16:06:13;6.40;99.90
4324;DHT22;2175;51.018;6.994;2022-11-20T16:08:41;6.40;99.90
4324;DHT22;2175;51.018;6.994;2022-11-20T16:11:09;6.50;99.90
4324;DHT22;2175;51.018;6.994;2022-11-20T16:13:35;6.50;99.90
4324;DHT22;2175;51.018;6.994;2022-11-20T16:16:26;6.40;99.90
4324;DHT22;2175;51.018;6.994;2022-11-20T16:18:54;6.50;99.90
4324;DHT22;2175;51.018;6.994;2022-11-20T16:21:20;6.50;99.90
4324;DHT22;2175;51.018;6.994;2022-11-20T16:23:45;6.40;99.90
4324;DHT22;2175;51.018;6.994;2022-11-20T16:26:11;6.40;99.90
4324;DHT22;2175;51.018;6.994;2022-11-20T16:28:37;6.40;99.90
4324;DHT22;2175;51.018;6.994;2022-11-20T16:31:15;6.40;99.90
4324;DHT22;2175;51.018;6.994;2022-11-20T16:33:41;6.40;99.90
4324;DHT22;2175;51.018;6.994;2022-11-20T16:36:14;6.50;99.90
4324;DHT22;2175;51.018;6.994;2022-11-20T16:38:40;6.50;99.90
4324;DHT22;2175;51.018;6.994;2022-11-20T16:41:07;6.50;99.90
4324;DHT22;2175;51.018;6.994;2022-11-20T16:43:47;6.50;99.90
4324;DHT22;2175;51.018;6.994;2022-11-20T16:46:17;6.60;99.90
4324;DHT22;2175;51.018;6.994;2022-11-20T16:48:43;6.50;99.90
4324;DHT22;2175;51.018;6.994;2022-11-20T16:51:10;6.50;99.90
4324;DHT22;2175;51.018;6.994;2022-11-20T16:53:38;6.60;99.90
4324;DHT22;2175;51.018;6.994;2022-11-20T16:56:14;6.60;99.90
4324;DHT22;2175;51.018;6.994;2022-11-20T16:58:42;6.70;99.90
4324;DHT22;2175;51.018;6.994;2022-11-20T17:01:10;6.60;99.90
4324;DHT22;2175;51.018;6.994;2022-11-20T17:03:37;6.70;99.90
4324;DHT22;2175;51.018;6.994;2022-11-20T17:06:11;6.70;99.90
4324;DHT22;2175;51.018;6.994;2022-11-20T17:08:37;6.60;99.90
4324;DHT22;2175;51.018;6.994;2022-11-20T17:11:05;6.70;99.90
4324;DHT22;2175;51.018;6.994;2022-11-20T17:13:30;6.70;99.90
4324;DHT22;2175;51.018;6.994;2022-11-20T17:16:01;6.70;99.90
4324;DHT22;2175;51.018;6.994;2022-11-20T17:18:27;6.70;99.90
4324;DHT22;2175;51.018;6.994;2022-11-20T17:20:53;6.70;99.90
4324;DHT22;2175;51.018;6.994;2022-11-20T17:23:18;6.70;99.90
4324;DHT22;2175;51.018;6.994;2022-11-20T17:25:47;6.70;99.90
4324;DHT22;2175;51.018;6.994;2022-11-20T17:28:21;6.60;99.90
4324;DHT22;2175;51.018;6.994;2022-11-20T17:31:00;6.60;99.90
4324;DHT22;2175;51.018;6.994;2022-11-20T17:33:26;6.60;99.90
4324;DHT22;2175;51.018;6.994;2022-11-20T17:35:52;6.60;99.90
4324;DHT22;2175;51.018;6.994;2022-11-20T17:38:18;6.60;99.90
4324;DHT22;2175;51.018;6.994;2022-11-20T17:40:43;6.60;99.90
4324;DHT22;2175;51.018;6.994;2022-11-20T17:43:10;6.60;99.90
4324;DHT22;2175;51.018;6.994;2022-11-20T17:45:36;6.70;99.90
4324;DHT22;2175;51.018;6.994;2022-11-20T17:48:01;6.60;99.90
4324;DHT22;2175;51.018;6.994;2022-11-20T17:50:27;6.60;99.90
4324;DHT22;2175;51.018;6.994;2022-11-20T17:52:53;6.60;99.90
4324;DHT22;2175;51.018;6.994;2022-11-20T17:55:18;6.60;99.90
4324;DHT22;2175;51.018;6.994;2022-11-20T17:57:44;6.60;99.90
4324;DHT22;2175;51.018;6.994;2022-11-20T18:00:21;6.60;99.90
4324;DHT22;2175;51.018;6.994;2022-11-20T18:02:48;6.60;99.90
4324;DHT22;2175;51.018;6.994;2022-11-20T18:05:14;6.70;99.90
4324;DHT22;2175;51.018;6.994;2022-11-20T18:07:40;6.70;99.90
4324;DHT22;2175;51.018;6.994;2022-11-20T18:10:06;6.70;99.90